createdAt,value
2022-09-26T00:02:58.880Z,0.07
2022-09-26T00:06:57.806Z,0.07
2022-09-26T00:10:57.606Z,0.07
2022-09-26T00:14:58.463Z,0.07
2022-09-26T00:18:58.244Z,0.07
2022-09-26T00:22:58.076Z,0.07
2022-09-26T00:26:58.275Z,0.07
2022-09-26T00:30:58.103Z,0.07
2022-09-26T00:34:58.311Z,0.07
2022-09-26T00:38:57.635Z,0.07
2022-09-26T00:42:57.852Z,0.07
2022-09-26T00:46:59.059Z,0.07
2022-09-26T00:50:58.279Z,0.07
2022-09-26T00:54:57.889Z,0.07
2022-09-26T00:58:57.710Z,0.07
2022-09-26T01:02:59.224Z,0.07
2022-09-26T01:06:58.353Z,0.07
2022-09-26T01:10:58.289Z,0.07
2022-09-26T01:14:57.770Z,0.07
2022-09-26T01:18:57.575Z,0.07
2022-09-26T01:22:57.557Z,0.07
2022-09-26T01:26:57.709Z,0.07
2022-09-26T01:30:58.442Z,0.07
2022-09-26T01:34:58.289Z,0.07
2022-09-26T01:38:58.168Z,0.07
2022-09-26T01:42:58.423Z,0.07
2022-09-26T01:46:58.147Z,0.07
2022-09-26T01:50:57.633Z,0.07
2022-09-26T01:54:57.918Z,14.31
2022-09-26T01:58:57.479Z,0.18
2022-09-26T02:02:58.830Z,0.15
2022-09-26T02:06:57.592Z,0.15
2022-09-26T02:10:58.173Z,0.15
2022-09-26T02:14:58.022Z,0.15
2022-09-26T02:18:58.234Z,0.15
2022-09-26T02:22:57.609Z,0.15
2022-09-26T02:26:57.866Z,0.15
2022-09-26T02:30:57.872Z,0.15
2022-09-26T02:34:57.828Z,0.15
2022-09-26T02:38:58.468Z,0.15
2022-09-26T02:42:57.516Z,0.15
2022-09-26T02:46:57.958Z,0.15
2022-09-26T02:50:58.320Z,0.15
2022-09-26T02:54:57.827Z,0.15
2022-09-26T02:58:58.020Z,0.15
2022-09-26T03:02:57.599Z,0.15
2022-09-26T03:06:58.202Z,3.61
2022-09-26T03:10:57.849Z,3.61
2022-09-26T03:14:58.807Z,3.61
2022-09-26T03:18:58.086Z,3.61
2022-09-26T03:22:57.927Z,3.61
2022-09-26T03:26:57.558Z,3.61
2022-09-26T03:30:57.824Z,3.61
2022-09-26T03:34:57.565Z,3.61
2022-09-26T03:38:59.686Z,3.61
2022-09-26T03:42:57.733Z,3.61
2022-09-26T03:47:02.691Z,3.61
2022-09-26T03:50:57.884Z,3.61
2022-09-26T03:54:57.811Z,3.61
2022-09-26T03:58:57.922Z,3.61
2022-09-26T04:02:57.941Z,3.61
2022-09-26T04:06:58.148Z,3.61
2022-09-26T04:10:57.941Z,3.61
2022-09-26T04:14:57.868Z,3.61
2022-09-26T04:18:57.931Z,3.61
2022-09-26T04:22:58.442Z,3.61
2022-09-26T04:26:58.501Z,3.61
2022-09-26T04:30:58.557Z,3.61
2022-09-26T04:35:01.283Z,3.61
2022-09-26T04:38:58.383Z,3.61
2022-09-26T04:42:57.685Z,3.61
2022-09-26T04:47:05.050Z,3.61
2022-09-26T04:50:58.183Z,3.61
2022-09-26T04:54:58.523Z,3.61
2022-09-26T04:58:57.643Z,3.61
2022-09-26T05:02:58.408Z,3.61
2022-09-26T05:06:57.988Z,3.61
2022-09-26T05:10:58.474Z,3.61
2022-09-26T05:14:58.117Z,8.55
2022-09-26T05:18:58.385Z,8.55
2022-09-26T05:22:57.868Z,8.55
2022-09-26T05:26:57.858Z,8.55
2022-09-26T05:30:57.939Z,8.55
2022-09-26T05:35:04.716Z,8.55
2022-09-26T05:38:58.133Z,8.55
2022-09-26T05:42:58.356Z,8.55
2022-09-26T05:46:57.994Z,8.55
2022-09-26T05:50:57.743Z,8.55
2022-09-26T05:54:57.705Z,8.55
2022-09-26T05:58:57.660Z,8.55
2022-09-26T06:03:05.177Z,8.55
2022-09-26T06:06:57.773Z,8.55
2022-09-26T06:10:57.565Z,8.55
2022-09-26T06:14:57.685Z,8.55
2022-09-26T06:18:57.800Z,8.55
2022-09-26T06:22:58.129Z,8.55
2022-09-26T06:26:57.689Z,8.55
2022-09-26T06:30:58.322Z,8.55
2022-09-26T06:34:58.441Z,8.55
2022-09-26T06:38:57.515Z,8.55
2022-09-26T06:42:57.598Z,8.55
2022-09-26T06:46:58.348Z,8.55
2022-09-26T06:50:58.310Z,8.55
2022-09-26T06:54:58.023Z,8.55
2022-09-26T06:58:57.976Z,8.55
2022-09-26T07:02:59.068Z,8.55
2022-09-26T07:06:58.315Z,8.55
2022-09-26T07:11:10.913Z,8.55
2022-09-26T07:15:04.863Z,8.55
2022-09-26T07:18:58.423Z,8.55
2022-09-26T07:22:57.936Z,8.55
2022-09-26T07:26:58.149Z,8.55
2022-09-26T07:30:58.290Z,8.55
2022-09-26T07:35:03.427Z,8.55
2022-09-26T07:38:57.832Z,8.55
2022-09-26T07:44:00.178Z,8.55
2022-09-26T07:46:58.107Z,8.55
2022-09-26T07:48:57.417Z,8.55
2022-09-26T07:50:58.128Z,8.55
2022-09-26T07:52:58.294Z,8.55
2022-09-26T07:54:58.276Z,8.55
2022-09-26T07:56:57.679Z,8.55
2022-09-26T07:58:57.885Z,8.55
2022-09-26T08:01:01.585Z,8.55
2022-09-26T08:02:59.623Z,8.55
2022-09-26T08:05:01.070Z,8.55
2022-09-26T08:06:57.851Z,8.55
2022-09-26T08:08:58.294Z,8.55
2022-09-26T08:11:03.411Z,8.55
2022-09-26T08:12:58.029Z,8.55
2022-09-26T08:14:58.458Z,8.55
2022-09-26T08:16:57.930Z,8.55
2022-09-26T08:18:57.823Z,8.55
2022-09-26T08:21:05.104Z,14.56
2022-09-26T08:22:57.683Z,14.56
2022-09-26T08:24:58.051Z,14.56
2022-09-26T08:27:05.808Z,0.13
2022-09-26T08:28:57.876Z,0.13
2022-09-26T08:30:58.412Z,0.13
2022-09-26T08:32:57.978Z,0.08
2022-09-26T08:34:59.681Z,0.08
2022-09-26T08:36:57.870Z,0.08
2022-09-26T08:38:58.102Z,0.06
2022-09-26T08:40:58.820Z,0.06
2022-09-26T08:42:57.791Z,0.06
2022-09-26T08:44:58.414Z,0.05
2022-09-26T08:46:58.338Z,0.05
2022-09-26T08:48:58.228Z,0.05
2022-09-26T08:50:58.168Z,0.05
2022-09-26T08:52:58.117Z,0.05
2022-09-26T08:54:58.046Z,0.05
2022-09-26T08:56:57.826Z,0.05
2022-09-26T08:59:03.054Z,0.05
2022-09-26T09:01:00.616Z,0.05
2022-09-26T09:02:58.906Z,0.05
2022-09-26T09:05:04.914Z,0.05
2022-09-26T09:06:59.116Z,0.05
2022-09-26T09:08:58.462Z,0.05
2022-09-26T09:10:58.851Z,0.05
2022-09-26T09:13:03.967Z,0.05
2022-09-26T09:15:26.661Z,0.05
2022-09-26T09:16:58.173Z,0.05
2022-09-26T09:18:59.552Z,0.05
2022-09-26T09:20:58.401Z,0.05
2022-09-26T09:22:58.498Z,0.05
2022-09-26T09:24:58.049Z,0.05
2022-09-26T09:28:31.652Z,0.05
2022-09-26T09:29:10.369Z,0.05
2022-09-26T09:31:02.855Z,0.05
2022-09-26T09:32:58.969Z,0.05
2022-09-26T09:35:04.967Z,0.05
2022-09-26T09:36:58.856Z,0.05
2022-09-26T09:38:58.820Z,0.05
2022-09-26T09:40:58.453Z,0.05
2022-09-26T09:42:58.556Z,0.05
2022-09-26T09:44:59.231Z,0.05
2022-09-26T09:46:58.847Z,0.05
2022-09-26T09:48:58.498Z,0.05
2022-09-26T09:50:58.283Z,0.05
2022-09-26T09:52:58.662Z,0.05
2022-09-26T09:54:58.038Z,0.05
2022-09-26T09:56:59.039Z,0.05
2022-09-26T09:58:58.003Z,0.05
2022-09-26T10:01:02.787Z,0.05
2022-09-26T10:02:58.300Z,0.05
2022-09-26T10:04:59.484Z,0.05
2022-09-26T10:07:33.849Z,0.05
2022-09-26T10:08:58.913Z,28.07
2022-09-26T10:10:59.010Z,2.49
2022-09-26T10:12:58.948Z,2.49
2022-09-26T10:14:58.700Z,0.09
2022-09-26T10:16:58.471Z,0.08
2022-09-26T10:19:27.177Z,0.08
2022-09-26T10:20:58.654Z,0.06
2022-09-26T10:22:58.690Z,0.06
2022-09-26T10:25:00.050Z,0.06
2022-09-26T10:27:06.558Z,0.05
2022-09-26T10:28:59.462Z,0.05
2022-09-26T10:30:59.115Z,0.05
2022-09-26T10:33:02.016Z,0.05
2022-09-26T10:34:59.605Z,0.05
2022-09-26T10:36:59.122Z,0.05
2022-09-26T10:38:58.968Z,0.05
2022-09-26T10:40:59.507Z,0.05
2022-09-26T10:43:06.416Z,0.05
2022-09-26T10:44:58.442Z,0.04
2022-09-26T10:47:00.297Z,0.04
2022-09-26T10:48:58.185Z,0.04
2022-09-26T10:50:58.542Z,0.04
2022-09-26T10:53:04.644Z,0.04
2022-09-26T10:55:00.558Z,0.04
2022-09-26T10:57:00.213Z,0.04
2022-09-26T10:59:00.689Z,0.04
2022-09-26T11:01:02.063Z,0.04
2022-09-26T11:02:59.487Z,0.04
2022-09-26T11:05:00.710Z,0.04
2022-09-26T11:06:58.937Z,0.04
2022-09-26T11:09:00.358Z,0.04
2022-09-26T11:10:59.004Z,0.04
2022-09-26T11:13:01.194Z,0.04
2022-09-26T11:15:03.490Z,0.05
2022-09-26T11:17:01.704Z,0.05
2022-09-26T11:19:00.412Z,0.05
2022-09-26T11:20:59.785Z,0.05
2022-09-26T11:23:04.508Z,0.05
2022-09-26T11:24:59.429Z,0.05
2022-09-26T11:26:58.918Z,0.05
2022-09-26T11:28:57.824Z,0.04
2022-09-26T11:30:58.028Z,0.04
2022-09-26T11:33:04.610Z,0.05
2022-09-26T11:34:59.806Z,0.05
2022-09-26T11:36:58.696Z,0.05
2022-09-26T11:38:57.899Z,0.04
2022-09-26T11:41:05.451Z,0.04
2022-09-26T11:43:01.917Z,0.04
2022-09-26T11:45:01.087Z,0.04
2022-09-26T11:47:02.981Z,0.04
2022-09-26T11:49:02.766Z,0.04
2022-09-26T11:51:02.102Z,0.04
2022-09-26T11:53:00.911Z,0.04
2022-09-26T11:55:00.759Z,0.04
2022-09-26T11:57:01.183Z,0.04
2022-09-26T11:59:00.536Z,0.04
2022-09-26T12:01:00.915Z,0.04
2022-09-26T12:02:59.062Z,0.04
2022-09-26T12:04:58.823Z,0.04
2022-09-26T12:06:57.887Z,0.04
2022-09-26T12:08:57.915Z,0.04
2022-09-26T12:10:58.147Z,0.04
2022-09-26T12:13:03.068Z,0.04
2022-09-26T12:14:57.762Z,0.04
2022-09-26T12:16:58.578Z,0.04
2022-09-26T12:18:58.166Z,0.04
2022-09-26T12:20:57.691Z,0.04
2022-09-26T12:22:58.224Z,0.04
2022-09-26T12:24:58.021Z,0.04
2022-09-26T12:26:57.802Z,0.04
2022-09-26T12:28:58.381Z,0.04
2022-09-26T12:30:57.979Z,0.04
2022-09-26T12:32:58.200Z,0.04
2022-09-26T12:34:57.911Z,0.04
2022-09-26T12:36:57.482Z,0.04
2022-09-26T12:38:57.968Z,0.04
2022-09-26T12:40:58.205Z,0.04
2022-09-26T12:42:57.661Z,0.04
2022-09-26T12:44:58.040Z,0.04
2022-09-26T12:46:58.982Z,0.04
2022-09-26T12:48:57.633Z,0.04
2022-09-26T12:50:57.870Z,0.04
2022-09-26T12:53:01.291Z,0.04
2022-09-26T12:54:58.452Z,0.04
2022-09-26T12:56:57.614Z,0.04
2022-09-26T12:58:57.942Z,0.04
2022-09-26T13:01:03.975Z,0.04
2022-09-26T13:02:58.886Z,0.04
2022-09-26T13:04:57.887Z,0.04
2022-09-26T13:07:31.498Z,0.04
2022-09-26T13:08:57.848Z,0.04
2022-09-26T13:10:57.943Z,0.04
2022-09-26T13:12:58.363Z,0.04
2022-09-26T13:14:57.774Z,0.04
2022-09-26T13:16:57.966Z,0.04
2022-09-26T13:19:00.525Z,0.04
2022-09-26T13:20:57.654Z,0.04
2022-09-26T13:22:58.033Z,0.04
2022-09-26T13:24:57.860Z,0.04
2022-09-26T13:26:58.379Z,0.04
2022-09-26T13:29:24.863Z,0.04
2022-09-26T13:30:58.546Z,0.04
2022-09-26T13:32:58.100Z,0.04
2022-09-26T13:34:57.642Z,0.04
2022-09-26T13:36:58.017Z,0.04
2022-09-26T13:39:04.370Z,0.04
2022-09-26T13:40:59.031Z,0.04
2022-09-26T13:43:02.256Z,0.04
2022-09-26T13:44:57.716Z,0.04
2022-09-26T13:46:58.984Z,0.04
2022-09-26T13:48:57.926Z,0.04
2022-09-26T13:50:58.027Z,0.04
2022-09-26T13:52:58.388Z,0.04
2022-09-26T13:54:58.087Z,0.04
2022-09-26T13:56:57.726Z,0.04
2022-09-26T13:58:58.325Z,0.04
2022-09-26T14:01:00.948Z,0.04
2022-09-26T14:03:02.502Z,0.04
2022-09-26T14:04:57.695Z,0.04
2022-09-26T14:06:58.125Z,0.04
2022-09-26T14:08:58.417Z,0.04
2022-09-26T14:10:58.097Z,0.04
2022-09-26T14:12:58.267Z,0.04
2022-09-26T14:14:57.964Z,0.04
2022-09-26T14:16:58.380Z,2.34
2022-09-26T14:18:58.189Z,2.34
2022-09-26T14:20:58.506Z,2.34
2022-09-26T14:22:57.591Z,0.08
2022-09-26T14:24:57.786Z,0.08
2022-09-26T14:26:58.069Z,0.08
2022-09-26T14:29:03.531Z,0.05
2022-09-26T14:30:57.692Z,0.05
2022-09-26T14:32:58.242Z,0.05
2022-09-26T14:34:57.792Z,0.05
2022-09-26T14:36:58.081Z,0.05
2022-09-26T14:38:57.800Z,0.05
2022-09-26T14:40:59.066Z,0.05
2022-09-26T14:42:58.002Z,0.05
2022-09-26T14:45:00.087Z,0.05
2022-09-26T14:46:58.709Z,0.05
2022-09-26T14:48:57.755Z,0.05
2022-09-26T14:50:57.764Z,0.05
2022-09-26T14:52:57.818Z,0.05
2022-09-26T14:54:57.556Z,0.05
2022-09-26T14:56:58.068Z,0.05
2022-09-26T14:58:57.886Z,0.05
2022-09-26T15:01:01.365Z,0.05
2022-09-26T15:03:00.871Z,0.05
2022-09-26T15:04:58.302Z,0.05
2022-09-26T15:06:57.766Z,0.05
2022-09-26T15:09:01.962Z,0.05
2022-09-26T15:10:58.142Z,0.05
2022-09-26T15:12:58.228Z,0.05
2022-09-26T15:15:03.969Z,0.05
2022-09-26T15:16:58.476Z,0.05
2022-09-26T15:18:57.725Z,0.05
2022-09-26T15:21:03.372Z,0.05
2022-09-26T15:22:57.863Z,0.05
2022-09-26T15:24:58.093Z,0.05
2022-09-26T15:26:58.252Z,0.05
2022-09-26T15:28:58.294Z,0.05
2022-09-26T15:30:58.509Z,0.05
2022-09-26T15:32:58.229Z,0.05
2022-09-26T15:34:58.464Z,0.05
2022-09-26T15:36:58.217Z,0.05
2022-09-26T15:38:58.855Z,0.05
2022-09-26T15:40:58.694Z,0.05
2022-09-26T15:42:57.676Z,0.05
2022-09-26T15:44:57.913Z,0.05
2022-09-26T15:47:05.766Z,0.05
2022-09-26T15:48:57.922Z,0.05
2022-09-26T15:50:58.035Z,0.05
2022-09-26T15:52:57.966Z,0.05
2022-09-26T15:54:58.577Z,0.05
2022-09-26T15:56:57.578Z,0.05
2022-09-26T15:58:58.028Z,0.04
2022-09-26T16:01:00.868Z,0.04
2022-09-26T16:02:58.719Z,0.04
2022-09-26T16:04:57.624Z,0.05
2022-09-26T16:06:57.733Z,0.05
2022-09-26T16:08:57.882Z,0.05
2022-09-26T16:10:58.169Z,0.04
2022-09-26T16:13:00.541Z,0.04
2022-09-26T16:14:57.678Z,0.04
2022-09-26T16:17:01.408Z,0.04
2022-09-26T16:18:57.888Z,0.04
2022-09-26T16:20:57.976Z,0.04
2022-09-26T16:23:04.041Z,0.05
2022-09-26T16:24:57.914Z,0.05
2022-09-26T16:26:57.561Z,0.05
2022-09-26T16:28:58.397Z,0.05
2022-09-26T16:31:02.131Z,0.05
2022-09-26T16:32:58.074Z,0.05
2022-09-26T16:34:58.176Z,0.05
2022-09-26T16:36:57.905Z,0.05
2022-09-26T16:38:58.410Z,0.05
2022-09-26T16:40:58.214Z,0.05
2022-09-26T16:42:59.726Z,0.05
2022-09-26T16:45:11.661Z,0.05
2022-09-26T16:46:58.790Z,0.05
2022-09-26T16:48:57.628Z,0.05
2022-09-26T16:50:58.215Z,0.05
2022-09-26T16:52:58.079Z,0.04
2022-09-26T16:54:58.731Z,0.04
2022-09-26T16:56:57.552Z,0.04
2022-09-26T16:58:59.889Z,0.04
2022-09-26T17:01:04.118Z,0.04
2022-09-26T17:02:58.275Z,0.04
2022-09-26T17:04:58.412Z,0.04
2022-09-26T17:06:58.364Z,0.04
2022-09-26T17:08:58.472Z,0.04
2022-09-26T17:10:58.606Z,0.04
2022-09-26T17:12:57.962Z,0.04
2022-09-26T17:15:03.309Z,0.04
2022-09-26T17:16:58.507Z,0.04
2022-09-26T17:18:58.404Z,0.04
2022-09-26T17:20:58.387Z,0.04
2022-09-26T17:22:58.448Z,0.04
2022-09-26T17:24:58.111Z,0.04
2022-09-26T17:26:58.077Z,0.04
2022-09-26T17:28:58.086Z,0.04
2022-09-26T17:30:58.664Z,0.04
2022-09-26T17:33:03.866Z,0.04
2022-09-26T17:34:58.218Z,0.04
2022-09-26T17:36:57.618Z,0.04
2022-09-26T17:39:01.409Z,0.04
2022-09-26T17:40:58.714Z,0.04
2022-09-26T17:42:57.637Z,0.04
2022-09-26T17:44:58.488Z,0.04
2022-09-26T17:47:01.466Z,0.04
2022-09-26T17:48:57.918Z,0.04
2022-09-26T17:50:58.171Z,0.04
2022-09-26T17:52:57.630Z,0.04
2022-09-26T17:54:58.116Z,0.04
2022-09-26T17:56:58.018Z,0.04
2022-09-26T17:58:57.817Z,0.04
2022-09-26T18:01:00.804Z,0.04
2022-09-26T18:02:59.117Z,0.04
2022-09-26T18:04:57.744Z,0.04
2022-09-26T18:06:57.873Z,0.04
2022-09-26T18:08:58.084Z,0.04
2022-09-26T18:10:58.253Z,0.04
2022-09-26T18:12:57.536Z,0.04
2022-09-26T18:14:58.106Z,0.04
2022-09-26T18:16:58.775Z,0.04
2022-09-26T18:18:57.976Z,0.04
2022-09-26T18:20:57.691Z,0.04
2022-09-26T18:22:58.053Z,0.05
2022-09-26T18:25:04.312Z,0.05
2022-09-26T18:26:58.398Z,0.05
2022-09-26T18:28:58.432Z,0.05
2022-09-26T18:30:58.511Z,0.05
2022-09-26T18:32:58.411Z,0.05
2022-09-26T18:34:58.219Z,0.05
2022-09-26T18:36:58.090Z,0.05
2022-09-26T18:38:58.299Z,0.05
2022-09-26T18:41:01.181Z,0.05
2022-09-26T18:42:57.791Z,0.05
2022-09-26T18:44:58.417Z,0.05
2022-09-26T18:47:01.797Z,0.05
2022-09-26T18:48:57.620Z,0.05
2022-09-26T18:50:57.884Z,0.05
2022-09-26T18:52:58.047Z,0.05
2022-09-26T18:54:58.235Z,0.05
2022-09-26T18:56:58.256Z,0.05
2022-09-26T18:58:57.693Z,0.05
2022-09-26T19:01:00.755Z,0.05
2022-09-26T19:02:59.023Z,0.05
2022-09-26T19:04:57.814Z,0.05
2022-09-26T19:06:58.211Z,0.05
2022-09-26T19:08:58.373Z,0.05
2022-09-26T19:10:57.937Z,0.05
2022-09-26T19:12:57.585Z,0.05
2022-09-26T19:14:57.899Z,0.05
2022-09-26T19:16:58.520Z,0.05
2022-09-26T19:18:58.024Z,0.05
2022-09-26T19:20:57.822Z,0.05
2022-09-26T19:22:57.941Z,0.05
2022-09-26T19:24:58.356Z,0.05
2022-09-26T19:26:57.557Z,0.05
2022-09-26T19:28:57.485Z,0.05
2022-09-26T19:30:57.823Z,0.05
2022-09-26T19:32:58.224Z,0.05
2022-09-26T19:34:57.801Z,0.05
2022-09-26T19:36:57.970Z,0.05
2022-09-26T19:38:58.386Z,0.05
2022-09-26T19:41:00.553Z,0.05
2022-09-26T19:42:58.082Z,0.05
2022-09-26T19:44:58.144Z,0.05
2022-09-26T19:46:58.843Z,0.05
2022-09-26T19:49:01.680Z,0.05
2022-09-26T19:50:58.014Z,0.05
2022-09-26T19:52:57.896Z,0.05
2022-09-26T19:55:03.225Z,0.05
2022-09-26T19:56:57.689Z,0.05
2022-09-26T19:58:57.919Z,0.05
2022-09-26T20:01:02.081Z,0.05
2022-09-26T20:02:58.369Z,0.05
2022-09-26T20:04:57.890Z,0.05
2022-09-26T20:06:57.580Z,0.05
2022-09-26T20:09:01.482Z,0.05
2022-09-26T20:10:57.629Z,0.05
2022-09-26T20:12:58.313Z,0.05
2022-09-26T20:14:57.979Z,0.05
2022-09-26T20:16:58.784Z,0.05
2022-09-26T20:18:57.829Z,0.05
2022-09-26T20:20:57.577Z,0.05
2022-09-26T20:22:57.703Z,0.05
2022-09-26T20:24:58.565Z,0.05
2022-09-26T20:26:57.825Z,0.05
2022-09-26T20:28:57.578Z,0.05
2022-09-26T20:30:58.392Z,0.05
2022-09-26T20:33:00.756Z,0.05
2022-09-26T20:34:58.035Z,0.05
2022-09-26T20:36:59.784Z,0.05
2022-09-26T20:38:57.959Z,0.05
2022-09-26T20:40:58.524Z,0.05
2022-09-26T20:42:58.338Z,0.05
2022-09-26T20:44:57.713Z,0.05
2022-09-26T20:46:58.893Z,0.05
2022-09-26T20:48:58.093Z,0.05
2022-09-26T20:50:58.112Z,0.05
2022-09-26T20:52:58.123Z,0.05
2022-09-26T20:54:58.198Z,0.05
2022-09-26T20:56:57.978Z,0.05
2022-09-26T20:58:57.956Z,0.05
2022-09-26T21:01:00.241Z,0.05
2022-09-26T21:02:59.181Z,0.05
2022-09-26T21:04:57.733Z,0.05
2022-09-26T21:06:57.914Z,0.05
2022-09-26T21:08:58.290Z,0.05
2022-09-26T21:10:58.226Z,0.05
2022-09-26T21:12:57.712Z,0.05
2022-09-26T21:14:58.199Z,0.05
2022-09-26T21:16:58.470Z,0.05
2022-09-26T21:18:58.218Z,0.05
2022-09-26T21:20:57.845Z,0.05
2022-09-26T21:22:59.291Z,0.05
2022-09-26T21:24:59.229Z,0.05
2022-09-26T21:26:58.474Z,0.05
2022-09-26T21:28:58.377Z,0.05
2022-09-26T21:30:58.351Z,0.05
2022-09-26T21:32:58.130Z,0.05
2022-09-26T21:34:58.509Z,0.05
2022-09-26T21:36:58.213Z,0.05
2022-09-26T21:38:57.776Z,0.05
2022-09-26T21:40:58.559Z,0.05
2022-09-26T21:42:57.809Z,0.05
2022-09-26T21:44:58.247Z,0.05
2022-09-26T21:46:58.519Z,0.05
2022-09-26T21:48:58.196Z,0.05
2022-09-26T21:50:58.353Z,0.05
2022-09-26T21:52:58.342Z,0.05
2022-09-26T21:54:58.366Z,0.05
2022-09-26T21:57:03.867Z,0.05
2022-09-26T21:58:57.903Z,0.05
2022-09-26T22:00:58.029Z,0.05
2022-09-26T22:02:58.787Z,0.05
2022-09-26T22:04:57.993Z,0.05
2022-09-26T22:07:03.293Z,0.05
2022-09-26T22:08:57.678Z,0.05
2022-09-26T22:10:57.907Z,0.05
2022-09-26T22:12:58.522Z,0.05
2022-09-26T22:14:59.082Z,0.05
2022-09-26T22:16:58.380Z,0.05
2022-09-26T22:18:58.503Z,0.05
2022-09-26T22:20:57.492Z,0.05
2022-09-26T22:22:58.056Z,0.05
2022-09-26T22:24:57.678Z,0.05
2022-09-26T22:26:58.098Z,0.05
2022-09-26T22:28:57.937Z,0.05
2022-09-26T22:30:58.429Z,0.05
2022-09-26T22:32:57.544Z,0.05
2022-09-26T22:34:58.022Z,0.05
2022-09-26T22:36:58.179Z,0.05
2022-09-26T22:38:58.403Z,0.05
2022-09-26T22:40:58.883Z,0.05
2022-09-26T22:42:58.171Z,0.05
2022-09-26T22:44:58.342Z,0.05
2022-09-26T22:46:58.477Z,0.05
2022-09-26T22:48:58.493Z,0.05
2022-09-26T22:50:57.898Z,0.05
2022-09-26T22:52:58.199Z,0.05
2022-09-26T22:54:57.940Z,0.05
2022-09-26T22:56:57.744Z,0.05
2022-09-26T22:58:58.121Z,0.05
2022-09-26T23:01:01.068Z,0.05
2022-09-26T23:02:58.498Z,0.05
2022-09-26T23:04:58.648Z,0.05
2022-09-26T23:06:57.753Z,0.05
2022-09-26T23:08:58.209Z,0.05
2022-09-26T23:10:58.474Z,0.05
2022-09-26T23:12:57.881Z,0.05
2022-09-26T23:14:58.667Z,0.05
2022-09-26T23:16:57.987Z,0.05
2022-09-26T23:18:57.521Z,0.05
2022-09-26T23:20:58.386Z,0.05
2022-09-26T23:22:58.321Z,0.05
2022-09-26T23:24:57.587Z,0.05
2022-09-26T23:26:57.941Z,0.05
2022-09-26T23:28:57.790Z,0.05
2022-09-26T23:30:58.347Z,0.05
2022-09-26T23:32:58.279Z,0.05
2022-09-26T23:34:58.450Z,0.05
2022-09-26T23:36:58.063Z,0.05
2022-09-26T23:38:57.761Z,0.05
2022-09-26T23:40:58.719Z,0.05
2022-09-26T23:42:58.115Z,0.05
2022-09-26T23:44:57.682Z,0.05
2022-09-26T23:46:58.797Z,0.05
2022-09-26T23:48:58.440Z,0.05
2022-09-26T23:50:58.063Z,0.05
2022-09-26T23:52:58.095Z,0.05
2022-09-26T23:54:58.200Z,0.05
2022-09-26T23:56:57.793Z,0.05
2022-09-26T23:58:58.226Z,0.05
